createdAt,value
2022-07-30T00:02:12.069Z,7.53
2022-07-30T00:04:40.119Z,8.30
2022-07-30T00:07:08.945Z,7.90
2022-07-30T00:09:36.956Z,7.73
2022-07-30T00:12:05.462Z,10.20
2022-07-30T00:14:34.873Z,8.13
2022-07-30T00:17:03.564Z,7.70
2022-07-30T00:19:33.335Z,7.67
2022-07-30T00:22:01.304Z,7.43
2022-07-30T00:24:29.188Z,7.80
2022-07-30T00:26:57.077Z,7.83
2022-07-30T00:29:25.539Z,7.30
2022-07-30T00:31:53.504Z,7.53
2022-07-30T00:34:21.429Z,7.30
2022-07-30T00:36:50.687Z,6.77
2022-07-30T00:39:18.620Z,7.57
2022-07-30T00:41:57.743Z,7.77
2022-07-30T00:44:25.754Z,7.00
2022-07-30T00:46:54.140Z,8.13
2022-07-30T00:49:22.243Z,7.70
2022-07-30T00:51:52.003Z,7.30
2022-07-30T00:54:21.156Z,7.03
2022-07-30T00:56:49.162Z,7.83
2022-07-30T00:59:17.623Z,6.47
2022-07-30T01:01:45.690Z,6.90
2022-07-30T01:04:13.624Z,6.47
2022-07-30T01:06:41.737Z,6.53
2022-07-30T01:09:11.008Z,6.20
2022-07-30T01:11:40.787Z,6.30
2022-07-30T01:14:09.817Z,7.13
2022-07-30T01:16:41.316Z,6.63
2022-07-30T01:19:32.409Z,6.73
2022-07-30T01:22:10.353Z,6.60
2022-07-30T01:24:42.515Z,5.70
2022-07-30T01:27:18.065Z,6.00
2022-07-30T01:29:49.106Z,5.37
2022-07-30T01:32:20.142Z,5.50
2022-07-30T01:34:48.697Z,5.70
2022-07-30T01:37:17.792Z,6.30
2022-07-30T01:39:49.581Z,4.93
2022-07-30T01:42:20.742Z,6.20
2022-07-30T01:44:50.037Z,5.77
2022-07-30T01:47:19.513Z,6.37
2022-07-30T01:49:49.505Z,7.20
2022-07-30T01:52:19.129Z,6.70
2022-07-30T01:54:50.991Z,7.00
2022-07-30T01:57:22.023Z,7.93
2022-07-30T01:59:53.102Z,7.13
2022-07-30T02:02:21.274Z,8.17
2022-07-30T02:04:49.309Z,7.80
2022-07-30T02:07:24.180Z,9.47
2022-07-30T02:09:56.638Z,7.80
2022-07-30T02:12:30.004Z,9.90
2022-07-30T02:15:04.247Z,8.53
2022-07-30T02:17:39.885Z,10.00
2022-07-30T02:20:15.441Z,12.10
2022-07-30T02:22:47.133Z,14.67
2022-07-30T02:25:19.657Z,14.80
2022-07-30T02:27:53.592Z,16.00
2022-07-30T02:30:24.295Z,18.67
2022-07-30T02:32:53.337Z,16.57
2022-07-30T02:35:23.225Z,15.60
2022-07-30T02:37:53.851Z,16.10
2022-07-30T02:40:24.021Z,15.20
2022-07-30T02:42:54.697Z,14.30
2022-07-30T02:45:24.803Z,14.37
2022-07-30T02:47:57.128Z,15.63
2022-07-30T02:50:26.873Z,13.97
2022-07-30T02:52:55.510Z,13.87
2022-07-30T02:55:25.333Z,14.80
2022-07-30T02:57:56.248Z,13.27
2022-07-30T03:00:26.017Z,15.27
2022-07-30T03:02:56.869Z,12.60
2022-07-30T03:05:25.751Z,13.30
2022-07-30T03:07:56.027Z,12.43
2022-07-30T03:10:25.567Z,11.50
2022-07-30T03:12:55.598Z,13.73
2022-07-30T03:15:23.961Z,13.77
2022-07-30T03:17:55.522Z,13.90
2022-07-30T03:20:29.157Z,14.87
2022-07-30T03:22:59.628Z,13.17
2022-07-30T03:25:29.336Z,14.50
2022-07-30T03:28:00.392Z,15.30
2022-07-30T03:30:29.544Z,13.97
2022-07-30T03:32:58.248Z,13.00
2022-07-30T03:35:26.772Z,14.00
2022-07-30T03:38:00.041Z,13.37
2022-07-30T03:40:29.632Z,13.27
2022-07-30T03:42:59.425Z,14.00
2022-07-30T03:45:27.882Z,13.50
2022-07-30T03:47:56.866Z,13.60
2022-07-30T03:50:25.055Z,13.00
2022-07-30T03:52:53.277Z,13.30
2022-07-30T03:55:21.953Z,12.90
2022-07-30T03:57:50.038Z,14.20
2022-07-30T04:00:19.565Z,13.57
2022-07-30T04:02:48.275Z,13.70
2022-07-30T04:05:17.764Z,13.83
2022-07-30T04:07:45.769Z,11.87
2022-07-30T04:10:15.531Z,13.73
2022-07-30T04:12:43.609Z,14.97
2022-07-30T04:16:37.261Z,12.80
2022-07-30T04:18:05.439Z,13.20
2022-07-30T04:20:40.436Z,13.40
2022-07-30T04:23:09.223Z,13.00
2022-07-30T04:25:37.537Z,12.50
2022-07-30T04:28:06.897Z,11.40
2022-07-30T04:30:35.337Z,12.60
2022-07-30T04:33:05.445Z,10.47
2022-07-30T04:35:51.020Z,12.27
2022-07-30T04:38:20.931Z,11.67
2022-07-30T04:40:49.512Z,11.20
2022-07-30T04:43:17.449Z,12.30
2022-07-30T04:45:45.420Z,10.40
2022-07-30T04:48:14.711Z,12.17
2022-07-30T04:50:46.473Z,11.90
2022-07-30T04:53:15.561Z,12.37
2022-07-30T04:55:45.830Z,13.03
2022-07-30T04:58:16.295Z,13.73
2022-07-30T05:00:45.431Z,12.93
2022-07-30T05:03:17.258Z,13.03
2022-07-30T05:05:46.738Z,13.60
2022-07-30T05:08:14.941Z,12.90
2022-07-30T05:10:44.671Z,13.60
2022-07-30T05:13:14.107Z,14.17
2022-07-30T05:15:44.712Z,13.63
2022-07-30T05:18:14.398Z,14.93
2022-07-30T05:20:42.473Z,14.40
2022-07-30T05:23:10.455Z,14.20
2022-07-30T05:25:38.357Z,12.37
2022-07-30T05:28:06.343Z,15.80
2022-07-30T05:30:34.377Z,13.60
2022-07-30T05:33:03.725Z,13.80
2022-07-30T05:35:42.716Z,14.93
2022-07-30T05:38:10.639Z,16.10
2022-07-30T05:40:38.779Z,16.43
2022-07-30T05:43:06.772Z,15.10
2022-07-30T05:45:34.780Z,15.77
2022-07-30T05:48:02.740Z,15.20
2022-07-30T05:50:30.815Z,15.00
2022-07-30T05:53:00.122Z,16.40
2022-07-30T05:55:28.086Z,17.43
2022-07-30T05:57:56.012Z,17.30
2022-07-30T06:00:24.034Z,16.80
2022-07-30T06:02:52.841Z,17.10
2022-07-30T06:05:20.971Z,16.50
2022-07-30T06:07:48.879Z,17.20
2022-07-30T06:10:18.209Z,14.73
2022-07-30T06:12:46.113Z,15.60
2022-07-30T06:15:14.419Z,15.00
2022-07-30T06:17:43.879Z,16.57
2022-07-30T06:20:21.393Z,12.87
2022-07-30T06:22:49.400Z,12.83
2022-07-30T06:25:19.402Z,11.63
2022-07-30T06:27:47.352Z,10.50
2022-07-30T06:30:15.661Z,11.27
2022-07-30T06:32:45.640Z,10.13
2022-07-30T06:35:16.873Z,9.57
2022-07-30T06:38:06.012Z,9.97
2022-07-30T06:40:34.452Z,8.93
2022-07-30T06:43:04.154Z,8.40
2022-07-30T06:45:32.205Z,8.60
2022-07-30T06:48:00.696Z,8.50
2022-07-30T06:50:29.361Z,6.75
2022-07-30T06:52:57.299Z,7.32
2022-07-30T06:55:25.624Z,6.82
2022-07-30T06:57:54.972Z,6.22
2022-07-30T07:00:22.908Z,6.20
2022-07-30T07:02:50.903Z,7.20
2022-07-30T07:05:20.539Z,6.93
2022-07-30T07:07:58.357Z,6.25
2022-07-30T07:10:27.816Z,5.57
2022-07-30T07:12:57.387Z,6.00
2022-07-30T07:15:37.118Z,4.90
2022-07-30T07:18:06.472Z,6.43
2022-07-30T07:20:35.367Z,5.70
2022-07-30T07:23:09.390Z,6.78
2022-07-30T07:25:42.434Z,5.43
2022-07-30T07:28:33.360Z,5.95
2022-07-30T07:31:01.862Z,6.20
2022-07-30T07:33:30.271Z,6.38
2022-07-30T07:35:58.260Z,6.75
2022-07-30T07:38:26.283Z,6.75
2022-07-30T07:40:55.057Z,7.72
2022-07-30T07:43:25.547Z,5.60
2022-07-30T07:45:53.496Z,5.68
2022-07-30T07:48:21.538Z,5.75
2022-07-30T07:50:50.067Z,5.80
2022-07-30T07:53:18.274Z,5.35
2022-07-30T07:55:46.242Z,5.38
2022-07-30T07:58:14.697Z,5.43
2022-07-30T08:00:50.271Z,4.57
2022-07-30T08:03:18.202Z,5.15
2022-07-30T08:06:01.107Z,3.95
2022-07-30T08:08:36.491Z,4.78
2022-07-30T08:11:07.501Z,5.00
2022-07-30T08:13:52.145Z,4.28
2022-07-30T08:16:22.625Z,4.38
2022-07-30T08:18:50.948Z,4.50
2022-07-30T08:21:18.968Z,4.75
2022-07-30T08:23:47.065Z,4.10
2022-07-30T08:26:15.217Z,4.75
2022-07-30T08:28:47.128Z,5.18
2022-07-30T08:31:15.174Z,4.15
2022-07-30T08:33:44.528Z,4.38
2022-07-30T08:36:12.557Z,4.30
2022-07-30T08:38:40.758Z,4.90
2022-07-30T08:41:11.955Z,5.05
2022-07-30T08:43:43.352Z,5.20
2022-07-30T08:46:13.828Z,5.22
2022-07-30T08:48:45.304Z,5.50
2022-07-30T08:51:13.485Z,5.53
2022-07-30T08:53:43.023Z,5.97
2022-07-30T08:56:11.207Z,6.05
2022-07-30T08:58:42.603Z,5.40
2022-07-30T09:01:10.726Z,5.40
2022-07-30T09:03:44.054Z,5.40
2022-07-30T09:06:13.926Z,4.38
2022-07-30T09:08:41.917Z,5.28
2022-07-30T09:11:10.399Z,4.13
2022-07-30T09:13:41.727Z,4.53
2022-07-30T09:16:20.413Z,4.72
2022-07-30T09:18:48.720Z,4.30
2022-07-30T09:21:22.317Z,4.18
2022-07-30T09:24:05.245Z,3.80
2022-07-30T09:26:52.711Z,3.50
2022-07-30T09:29:23.023Z,3.15
2022-07-30T09:31:58.294Z,3.47
2022-07-30T09:34:40.209Z,4.47
2022-07-30T09:37:20.378Z,3.13
2022-07-30T09:39:58.878Z,3.72
2022-07-30T09:42:29.685Z,3.40
2022-07-30T09:45:12.150Z,3.22
2022-07-30T09:47:41.452Z,7.38
2022-07-30T09:50:17.968Z,3.75
2022-07-30T09:53:08.969Z,2.97
2022-07-30T09:55:41.064Z,4.40
2022-07-30T09:58:10.306Z,3.30
2022-07-30T10:00:44.658Z,3.40
2022-07-30T10:03:21.786Z,2.70
2022-07-30T10:06:03.756Z,2.42
2022-07-30T10:08:45.869Z,3.35
2022-07-30T10:11:17.341Z,3.20
2022-07-30T10:13:53.546Z,3.30
2022-07-30T10:16:21.745Z,2.47
2022-07-30T10:18:53.095Z,2.80
2022-07-30T10:21:24.382Z,2.50
2022-07-30T10:23:55.497Z,2.78
2022-07-30T10:26:26.573Z,2.95
2022-07-30T10:28:54.849Z,2.22
2022-07-30T10:31:46.702Z,2.45
2022-07-30T10:34:13.266Z,3.00
2022-07-30T10:36:50.418Z,2.88
2022-07-30T10:39:26.302Z,2.55
2022-07-30T10:42:09.950Z,2.17
2022-07-30T10:45:17.676Z,3.17
2022-07-30T10:47:48.744Z,2.65
2022-07-30T10:50:22.211Z,2.50
2022-07-30T10:52:53.315Z,2.60
2022-07-30T10:55:36.679Z,2.80
2022-07-30T10:58:08.069Z,2.50
2022-07-30T11:00:38.610Z,2.63
2022-07-30T11:03:16.163Z,2.65
2022-07-30T11:05:45.982Z,2.70
2022-07-30T11:08:35.840Z,2.70
2022-07-30T11:11:19.865Z,2.75
2022-07-30T11:13:57.373Z,2.40
2022-07-30T11:16:46.285Z,3.03
2022-07-30T11:19:53.391Z,2.95
2022-07-30T11:22:27.343Z,3.00
2022-07-30T11:24:56.711Z,2.85
2022-07-30T11:27:45.481Z,2.30
2022-07-30T11:30:35.236Z,2.60
2022-07-30T11:33:32.198Z,2.72
2022-07-30T11:36:12.441Z,2.90
2022-07-30T11:39:01.142Z,2.67
2022-07-30T11:41:36.353Z,2.30
2022-07-30T11:44:28.876Z,2.60
2022-07-30T11:47:00.058Z,2.42
2022-07-30T11:49:36.820Z,2.45
2022-07-30T11:52:05.602Z,3.20
2022-07-30T11:54:33.866Z,3.50
2022-07-30T11:57:04.793Z,2.72
2022-07-30T11:59:53.563Z,3.08
2022-07-30T12:02:28.842Z,3.15
2022-07-30T12:04:57.453Z,3.13
2022-07-30T12:07:27.192Z,3.08
2022-07-30T12:10:13.037Z,3.35
2022-07-30T12:12:44.870Z,3.30
2022-07-30T12:15:34.289Z,3.85
2022-07-30T12:18:25.217Z,3.05
2022-07-30T12:20:55.979Z,3.05
2022-07-30T12:23:26.422Z,3.70
2022-07-30T12:25:56.250Z,5.38
2022-07-30T12:28:26.571Z,4.20
2022-07-30T12:31:01.589Z,5.32
2022-07-30T12:33:29.790Z,3.83
2022-07-30T12:35:59.257Z,4.50
2022-07-30T12:38:28.873Z,4.50
2022-07-30T12:40:59.484Z,5.13
2022-07-30T12:43:47.551Z,4.63
2022-07-30T12:46:19.874Z,5.00
2022-07-30T12:48:55.667Z,4.45
2022-07-30T12:51:25.786Z,4.25
2022-07-30T12:53:55.687Z,4.75
2022-07-30T12:56:25.843Z,4.63
2022-07-30T12:58:54.920Z,4.32
2022-07-30T13:01:42.556Z,3.90
2022-07-30T13:04:11.735Z,4.20
2022-07-30T13:06:42.156Z,4.20
2022-07-30T13:09:20.159Z,4.03
2022-07-30T13:11:50.006Z,4.15
2022-07-30T13:14:18.045Z,3.85
2022-07-30T13:16:47.646Z,3.25
2022-07-30T13:19:15.741Z,3.53
2022-07-30T13:21:49.834Z,3.50
2022-07-30T13:24:18.460Z,4.15
2022-07-30T13:26:46.865Z,3.83
2022-07-30T13:29:15.054Z,3.70
2022-07-30T13:31:43.645Z,3.00
2022-07-30T13:34:13.671Z,3.95
2022-07-30T13:36:41.956Z,3.40
2022-07-30T13:39:11.999Z,3.00
2022-07-30T13:41:42.845Z,2.88
2022-07-30T13:44:10.899Z,3.08
2022-07-30T13:46:41.191Z,2.95
2022-07-30T13:49:11.967Z,3.28
2022-07-30T13:51:41.578Z,2.47
2022-07-30T13:54:12.558Z,2.38
2022-07-30T13:56:42.341Z,2.75
2022-07-30T13:59:10.772Z,2.33
2022-07-30T14:01:43.623Z,2.22
2022-07-30T14:04:14.250Z,2.58
2022-07-30T14:06:44.215Z,2.47
2022-07-30T14:09:15.372Z,2.60
2022-07-30T14:11:45.593Z,2.42
2022-07-30T14:14:15.441Z,2.10
2022-07-30T14:16:45.611Z,1.98
2022-07-30T14:19:24.126Z,2.45
2022-07-30T14:21:57.830Z,2.40
2022-07-30T14:24:28.696Z,2.67
2022-07-30T14:26:58.291Z,2.22
2022-07-30T14:29:27.125Z,2.70
2022-07-30T14:31:55.259Z,2.28
2022-07-30T14:34:23.395Z,3.10
2022-07-30T14:36:52.773Z,3.13
2022-07-30T14:39:21.165Z,2.20
2022-07-30T14:41:52.427Z,2.58
2022-07-30T14:44:23.927Z,2.40
2022-07-30T14:46:52.986Z,2.60
2022-07-30T14:49:21.589Z,3.80
2022-07-30T14:51:50.927Z,2.75
2022-07-30T14:54:20.463Z,3.25
2022-07-30T14:56:48.735Z,2.50
2022-07-30T14:59:16.942Z,3.38
2022-07-30T15:01:47.562Z,2.78
2022-07-30T15:04:16.126Z,2.75
2022-07-30T15:06:44.215Z,2.80
2022-07-30T15:09:12.279Z,3.15
2022-07-30T15:12:07.989Z,3.20
2022-07-30T15:14:30.044Z,2.78
2022-07-30T15:17:03.881Z,2.53
2022-07-30T15:19:32.625Z,2.80
2022-07-30T15:22:02.741Z,2.60
2022-07-30T15:24:32.363Z,2.88
2022-07-30T15:27:01.801Z,3.25
2022-07-30T15:29:30.847Z,2.90
2022-07-30T15:32:00.985Z,2.95
2022-07-30T15:34:34.037Z,3.58
2022-07-30T15:37:02.687Z,2.88
2022-07-30T15:39:32.930Z,2.95
2022-07-30T15:42:03.511Z,2.85
2022-07-30T15:44:32.240Z,3.63
2022-07-30T15:47:00.943Z,3.03
2022-07-30T15:49:29.823Z,3.10
2022-07-30T15:52:00.277Z,3.20
2022-07-30T15:54:28.854Z,3.00
2022-07-30T15:57:01.112Z,3.10
2022-07-30T15:59:31.491Z,2.80
2022-07-30T16:01:59.724Z,3.35
2022-07-30T16:04:31.839Z,3.30
2022-07-30T16:07:00.918Z,3.15
2022-07-30T16:09:28.878Z,3.22
2022-07-30T16:11:57.485Z,3.42
2022-07-30T16:14:26.236Z,3.42
2022-07-30T16:16:55.583Z,3.42
2022-07-30T16:19:23.549Z,3.78
2022-07-30T16:21:51.666Z,3.40
2022-07-30T16:24:19.715Z,3.05
2022-07-30T16:26:48.069Z,2.72
2022-07-30T16:29:16.028Z,3.30
2022-07-30T16:31:43.998Z,2.90
2022-07-30T16:34:13.375Z,2.70
2022-07-30T16:36:41.571Z,2.60
2022-07-30T16:39:09.527Z,2.80
2022-07-30T16:41:37.824Z,2.83
2022-07-30T16:44:06.093Z,2.97
2022-07-30T16:46:34.447Z,2.90
2022-07-30T16:49:02.520Z,3.10
2022-07-30T16:51:32.271Z,3.17
2022-07-30T16:54:00.367Z,2.60
2022-07-30T16:56:28.994Z,2.30
2022-07-30T16:58:57.047Z,2.53
2022-07-30T17:01:25.093Z,2.83
2022-07-30T17:03:53.160Z,2.93
2022-07-30T17:06:21.168Z,4.07
2022-07-30T17:08:50.509Z,3.23
2022-07-30T17:11:46.412Z,2.87
2022-07-30T17:14:07.450Z,3.20
2022-07-30T17:16:35.412Z,3.17
2022-07-30T17:19:09.330Z,3.00
2022-07-30T17:21:38.133Z,2.63
2022-07-30T17:24:11.443Z,5.93
2022-07-30T17:26:41.754Z,3.50
2022-07-30T17:29:13.882Z,3.47
2022-07-30T17:31:44.096Z,2.70
2022-07-30T17:34:14.016Z,3.03
2022-07-30T17:36:51.444Z,2.70
2022-07-30T17:40:28.175Z,2.70
2022-07-30T17:42:12.514Z,3.23
2022-07-30T17:44:42.518Z,3.30
2022-07-30T17:47:14.660Z,3.20
2022-07-30T17:49:44.589Z,3.20
2022-07-30T17:52:12.782Z,3.00
2022-07-30T17:54:42.105Z,2.37
2022-07-30T17:57:11.062Z,3.10
2022-07-30T17:59:39.035Z,2.83
2022-07-30T18:02:07.240Z,2.50
2022-07-30T18:04:35.472Z,2.90
2022-07-30T18:07:03.922Z,2.70
2022-07-30T18:09:38.637Z,2.77
2022-07-30T18:12:09.909Z,3.40
2022-07-30T18:14:38.666Z,3.20
2022-07-30T18:17:09.055Z,2.97
2022-07-30T18:19:40.868Z,5.33
2022-07-30T18:22:09.207Z,3.77
2022-07-30T18:24:40.337Z,2.80
2022-07-30T18:27:12.747Z,3.77
2022-07-30T18:29:40.706Z,3.40
2022-07-30T18:32:09.174Z,3.50
2022-07-30T18:34:37.361Z,3.00
2022-07-30T18:37:05.401Z,3.00
2022-07-30T18:39:33.436Z,3.30
2022-07-30T18:42:02.286Z,3.53
2022-07-30T18:44:31.926Z,2.77
2022-07-30T18:47:00.129Z,3.17
2022-07-30T18:49:37.561Z,3.13
2022-07-30T18:52:07.925Z,3.77
2022-07-30T18:54:36.823Z,3.00
2022-07-30T18:57:05.283Z,3.27
2022-07-30T18:59:34.642Z,3.63
2022-07-30T19:02:04.873Z,4.63
2022-07-30T19:04:33.082Z,3.53
2022-07-30T19:07:01.206Z,3.77
2022-07-30T19:09:29.162Z,3.53
2022-07-30T19:11:57.137Z,3.50
2022-07-30T19:14:25.134Z,3.60
2022-07-30T19:16:54.530Z,4.00
2022-07-30T19:19:27.601Z,3.60
2022-07-30T19:21:55.783Z,3.40
2022-07-30T19:24:23.832Z,5.50
2022-07-30T19:26:56.232Z,3.27
2022-07-30T19:29:24.245Z,3.30
2022-07-30T19:31:52.220Z,3.17
2022-07-30T19:34:21.537Z,3.80
2022-07-30T19:36:49.631Z,3.70
2022-07-30T19:39:21.703Z,3.90
2022-07-30T19:42:06.989Z,3.90
2022-07-30T19:44:41.115Z,3.93
2022-07-30T19:47:09.567Z,4.20
2022-07-30T19:49:40.603Z,4.17
2022-07-30T19:52:22.787Z,3.90
2022-07-30T19:54:52.568Z,5.23
2022-07-30T19:57:20.819Z,4.20
2022-07-30T19:59:59.573Z,4.90
2022-07-30T20:02:28.297Z,4.70
2022-07-30T20:04:58.071Z,4.40
2022-07-30T20:07:27.563Z,4.70
2022-07-30T20:09:55.875Z,4.37
2022-07-30T20:12:24.253Z,4.80
2022-07-30T20:14:52.650Z,4.47
2022-07-30T20:17:20.796Z,5.00
2022-07-30T20:19:49.952Z,3.73
2022-07-30T20:22:21.640Z,4.03
2022-07-30T20:24:52.576Z,3.90
2022-07-30T20:27:37.262Z,3.50
2022-07-30T20:30:08.909Z,4.47
2022-07-30T20:32:37.434Z,5.53
2022-07-30T20:35:07.465Z,4.97
2022-07-30T20:37:54.503Z,5.40
2022-07-30T20:40:23.302Z,4.90
2022-07-30T20:42:51.559Z,4.63
2022-07-30T20:45:24.361Z,5.57
2022-07-30T20:47:56.560Z,4.30
2022-07-30T20:50:30.555Z,5.67
2022-07-30T20:53:00.674Z,5.60
2022-07-30T20:55:29.188Z,5.80
2022-07-30T20:58:07.914Z,5.40
2022-07-30T21:00:49.579Z,5.57
2022-07-30T21:03:21.261Z,5.80
2022-07-30T21:05:52.529Z,5.47
2022-07-30T21:08:25.150Z,5.07
2022-07-30T21:10:54.989Z,5.73
2022-07-30T21:13:24.955Z,6.13
2022-07-30T21:16:02.788Z,5.17
2022-07-30T21:18:31.946Z,4.83
2022-07-30T21:21:01.283Z,5.40
2022-07-30T21:23:34.320Z,4.13
2022-07-30T21:26:07.049Z,5.00
2022-07-30T21:28:41.660Z,4.87
2022-07-30T21:31:09.858Z,4.40
2022-07-30T21:33:38.330Z,4.90
2022-07-30T21:36:10.376Z,5.00
2022-07-30T21:38:42.034Z,5.00
2022-07-30T21:41:14.347Z,5.10
2022-07-30T21:43:44.087Z,5.03
2022-07-30T21:46:12.319Z,4.60
2022-07-30T21:48:41.114Z,4.70
2022-07-30T21:51:09.547Z,5.00
2022-07-30T21:53:44.875Z,4.50
2022-07-30T21:56:14.521Z,5.50
2022-07-30T21:58:42.800Z,5.20
2022-07-30T22:01:18.032Z,4.60
2022-07-30T22:04:01.083Z,5.27
2022-07-30T22:06:33.226Z,4.83
2022-07-30T22:09:08.525Z,5.40
2022-07-30T22:11:49.606Z,5.53
2022-07-30T22:14:17.792Z,5.27
2022-07-30T22:16:48.042Z,6.17
2022-07-30T22:19:17.106Z,5.17
2022-07-30T22:21:47.653Z,4.97
2022-07-30T22:24:29.916Z,4.70
2022-07-30T22:27:01.045Z,5.20
2022-07-30T22:29:33.700Z,5.80
2022-07-30T22:32:04.056Z,5.20
2022-07-30T22:34:32.484Z,5.60
2022-07-30T22:37:00.678Z,5.33
2022-07-30T22:39:31.836Z,5.10
2022-07-30T22:42:24.359Z,5.00
2022-07-30T22:44:54.690Z,5.03
2022-07-30T22:47:50.895Z,5.93
2022-07-30T22:50:14.754Z,4.90
2022-07-30T22:52:55.324Z,14.37
2022-07-30T22:55:26.803Z,7.73
2022-07-30T22:57:55.248Z,5.73
2022-07-30T23:00:27.364Z,5.70
2022-07-30T23:02:57.826Z,5.90
2022-07-30T23:05:26.424Z,7.23
2022-07-30T23:07:55.448Z,6.70
2022-07-30T23:10:25.626Z,6.60
2022-07-30T23:12:58.250Z,5.87
2022-07-30T23:15:26.943Z,6.30
2022-07-30T23:17:54.973Z,6.10
2022-07-30T23:20:23.179Z,6.20
2022-07-30T23:22:52.484Z,6.07
2022-07-30T23:25:20.573Z,6.37
2022-07-30T23:27:48.574Z,6.40
2022-07-30T23:30:17.892Z,5.87
2022-07-30T23:32:45.831Z,5.40
2022-07-30T23:35:13.828Z,6.70
2022-07-30T23:37:48.521Z,5.73
2022-07-30T23:40:18.179Z,5.27
2022-07-30T23:42:46.391Z,6.30
2022-07-30T23:45:14.322Z,6.30
2022-07-30T23:48:00.827Z,5.83
2022-07-30T23:50:30.902Z,8.63
2022-07-30T23:52:58.873Z,7.80
2022-07-30T23:55:27.711Z,7.53
2022-07-30T23:57:57.027Z,6.10
